sensor_id;sensor_type;location;lat;lon;timestamp;P1;P2;P0
80413;PMS5003;69758;52.580;13.068;2023-11-21T00:00:39;15;13;
80413;PMS5003;69758;52.580;13.068;2023-11-21T00:03:05;12;12;
80413;PMS5003;69758;52.580;13.068;2023-11-21T00:05:30;14;13;
80413;PMS5003;69758;52.580;13.068;2023-11-21T00:07:55;11;10;
80413;PMS5003;69758;52.580;13.068;2023-11-21T00:10:20;12;11;
80413;PMS5003;69758;52.580;13.068;2023-11-21T00:12:46;14;14;
80413;PMS5003;69758;52.580;13.068;2023-11-21T00:15:11;13;13;
80413;PMS5003;69758;52.580;13.068;2023-11-21T00:17:37;13;11;
80413;PMS5003;69758;52.580;13.068;2023-11-21T00:20:02;11;11;
80413;PMS5003;69758;52.580;13.068;2023-11-21T00:22:27;12;12;
80413;PMS5003;69758;52.580;13.068;2023-11-21T00:24:53;11;11;
80413;PMS5003;69758;52.580;13.068;2023-11-21T00:27:18;14;12;
80413;PMS5003;69758;52.580;13.068;2023-11-21T00:29:43;11;11;
80413;PMS5003;69758;52.580;13.068;2023-11-21T00:32:08;13;13;
80413;PMS5003;69758;52.580;13.068;2023-11-21T00:34:34;11;11;
80413;PMS5003;69758;52.580;13.068;2023-11-21T00:36:59;14;12;
80413;PMS5003;69758;52.580;13.068;2023-11-21T00:39:24;10;8;
80413;PMS5003;69758;52.580;13.068;2023-11-21T00:41:50;11;11;
80413;PMS5003;69758;52.580;13.068;2023-11-21T00:44:15;13;12;
80413;PMS5003;69758;52.580;13.068;2023-11-21T00:46:40;14;13;
80413;PMS5003;69758;52.580;13.068;2023-11-21T00:49:05;13;11;
80413;PMS5003;69758;52.580;13.068;2023-11-21T00:51:31;14;14;
80413;PMS5003;69758;52.580;13.068;2023-11-21T00:53:56;14;11;
80413;PMS5003;69758;52.580;13.068;2023-11-21T00:56:22;12;10;
80413;PMS5003;69758;52.580;13.068;2023-11-21T00:58:47;10;10;
80413;PMS5003;69758;52.580;13.068;2023-11-21T01:01:12;10;10;
80413;PMS5003;69758;52.580;13.068;2023-11-21T01:03:37;10;10;
80413;PMS5003;69758;52.580;13.068;2023-11-21T01:06:03;12;11;
80413;PMS5003;69758;52.580;13.068;2023-11-21T01:08:28;13;13;
80413;PMS5003;69758;52.580;13.068;2023-11-21T01:10:54;20;19;
80413;PMS5003;69758;52.580;13.068;2023-11-21T01:13:19;12;11;
80413;PMS5003;69758;52.580;13.068;2023-11-21T01:15:44;12;12;
80413;PMS5003;69758;52.580;13.068;2023-11-21T01:18:09;14;13;
80413;PMS5003;69758;52.580;13.068;2023-11-21T01:20:35;13;12;
80413;PMS5003;69758;52.580;13.068;2023-11-21T01:23:00;17;17;
80413;PMS5003;69758;52.580;13.068;2023-11-21T01:25:26;14;13;
80413;PMS5003;69758;52.580;13.068;2023-11-21T01:27:51;11;11;
80413;PMS5003;69758;52.580;13.068;2023-11-21T01:30:17;12;12;
80413;PMS5003;69758;52.580;13.068;2023-11-21T01:32:42;13;13;
80413;PMS5003;69758;52.580;13.068;2023-11-21T01:35:07;16;16;
80413;PMS5003;69758;52.580;13.068;2023-11-21T01:37:32;12;12;
80413;PMS5003;69758;52.580;13.068;2023-11-21T01:39:58;13;13;
80413;PMS5003;69758;52.580;13.068;2023-11-21T01:42:23;16;14;
80413;PMS5003;69758;52.580;13.068;2023-11-21T01:44:48;13;13;
80413;PMS5003;69758;52.580;13.068;2023-11-21T01:47:14;12;11;
80413;PMS5003;69758;52.580;13.068;2023-11-21T01:49:39;12;12;
80413;PMS5003;69758;52.580;13.068;2023-11-21T01:52:05;14;13;
80413;PMS5003;69758;52.580;13.068;2023-11-21T01:54:30;14;12;
80413;PMS5003;69758;52.580;13.068;2023-11-21T01:56:55;11;10;
80413;PMS5003;69758;52.580;13.068;2023-11-21T01:59:21;11;11;
80413;PMS5003;69758;52.580;13.068;2023-11-21T02:01:46;16;13;
80413;PMS5003;69758;52.580;13.068;2023-11-21T02:04:11;13;13;
80413;PMS5003;69758;52.580;13.068;2023-11-21T02:06:36;13;13;
80413;PMS5003;69758;52.580;13.068;2023-11-21T02:09:01;14;14;
80413;PMS5003;69758;52.580;13.068;2023-11-21T02:11:26;14;14;
80413;PMS5003;69758;52.580;13.068;2023-11-21T02:13:51;21;19;
80413;PMS5003;69758;52.580;13.068;2023-11-21T02:16:17;20;19;
80413;PMS5003;69758;52.580;13.068;2023-11-21T02:18:42;13;13;
80413;PMS5003;69758;52.580;13.068;2023-11-21T02:21:08;15;15;
80413;PMS5003;69758;52.580;13.068;2023-11-21T02:23:33;18;17;
80413;PMS5003;69758;52.580;13.068;2023-11-21T02:25:58;16;14;
80413;PMS5003;69758;52.580;13.068;2023-11-21T02:28:23;16;14;
80413;PMS5003;69758;52.580;13.068;2023-11-21T02:30:49;17;13;
80413;PMS5003;69758;52.580;13.068;2023-11-21T02:33:14;16;16;
80413;PMS5003;69758;52.580;13.068;2023-11-21T02:35:39;16;16;
80413;PMS5003;69758;52.580;13.068;2023-11-21T02:38:04;12;12;
80413;PMS5003;69758;52.580;13.068;2023-11-21T02:40:30;13;13;
80413;PMS5003;69758;52.580;13.068;2023-11-21T02:42:55;18;16;
80413;PMS5003;69758;52.580;13.068;2023-11-21T02:45:20;16;14;
80413;PMS5003;69758;52.580;13.068;2023-11-21T02:47:46;16;15;
80413;PMS5003;69758;52.580;13.068;2023-11-21T02:50:12;22;20;
80413;PMS5003;69758;52.580;13.068;2023-11-21T02:52:37;16;15;
80413;PMS5003;69758;52.580;13.068;2023-11-21T02:55:02;16;13;
80413;PMS5003;69758;52.580;13.068;2023-11-21T02:57:27;15;13;
80413;PMS5003;69758;52.580;13.068;2023-11-21T02:59:53;12;12;
80413;PMS5003;69758;52.580;13.068;2023-11-21T03:02:18;19;17;
80413;PMS5003;69758;52.580;13.068;2023-11-21T03:04:43;11;10;
80413;PMS5003;69758;52.580;13.068;2023-11-21T03:07:08;16;15;
80413;PMS5003;69758;52.580;13.068;2023-11-21T03:09:34;13;13;
80413;PMS5003;69758;52.580;13.068;2023-11-21T03:11:59;16;16;
80413;PMS5003;69758;52.580;13.068;2023-11-21T03:14:24;13;13;
80413;PMS5003;69758;52.580;13.068;2023-11-21T03:16:50;16;15;
80413;PMS5003;69758;52.580;13.068;2023-11-21T03:19:15;17;16;
80413;PMS5003;69758;52.580;13.068;2023-11-21T03:21:40;16;16;
80413;PMS5003;69758;52.580;13.068;2023-11-21T03:24:06;15;13;
80413;PMS5003;69758;52.580;13.068;2023-11-21T03:26:31;12;12;
80413;PMS5003;69758;52.580;13.068;2023-11-21T03:28:56;15;13;
80413;PMS5003;69758;52.580;13.068;2023-11-21T03:31:21;15;13;
80413;PMS5003;69758;52.580;13.068;2023-11-21T03:33:46;10;10;
80413;PMS5003;69758;52.580;13.068;2023-11-21T03:36:11;29;24;
80413;PMS5003;69758;52.580;13.068;2023-11-21T03:38:37;18;18;
80413;PMS5003;69758;52.580;13.068;2023-11-21T03:41:02;13;13;
80413;PMS5003;69758;52.580;13.068;2023-11-21T03:43:28;11;11;
80413;PMS5003;69758;52.580;13.068;2023-11-21T03:45:53;16;15;
80413;PMS5003;69758;52.580;13.068;2023-11-21T03:48:18;16;14;
80413;PMS5003;69758;52.580;13.068;2023-11-21T03:50:43;14;14;
80413;PMS5003;69758;52.580;13.068;2023-11-21T03:53:09;18;17;
80413;PMS5003;69758;52.580;13.068;2023-11-21T03:55:34;17;15;
80413;PMS5003;69758;52.580;13.068;2023-11-21T03:58:00;15;15;
80413;PMS5003;69758;52.580;13.068;2023-11-21T04:00:25;16;15;
80413;PMS5003;69758;52.580;13.068;2023-11-21T04:02:51;15;15;
80413;PMS5003;69758;52.580;13.068;2023-11-21T04:05:16;16;15;
80413;PMS5003;69758;52.580;13.068;2023-11-21T04:07:41;16;15;
80413;PMS5003;69758;52.580;13.068;2023-11-21T04:10:07;16;16;
80413;PMS5003;69758;52.580;13.068;2023-11-21T04:12:32;18;15;
80413;PMS5003;69758;52.580;13.068;2023-11-21T04:14:57;18;17;
80413;PMS5003;69758;52.580;13.068;2023-11-21T04:17:23;16;16;
80413;PMS5003;69758;52.580;13.068;2023-11-21T04:19:48;16;16;
80413;PMS5003;69758;52.580;13.068;2023-11-21T04:22:14;17;16;
80413;PMS5003;69758;52.580;13.068;2023-11-21T04:24:39;14;12;
80413;PMS5003;69758;52.580;13.068;2023-11-21T04:27:05;15;15;
80413;PMS5003;69758;52.580;13.068;2023-11-21T04:29:30;18;17;
80413;PMS5003;69758;52.580;13.068;2023-11-21T04:31:56;17;16;
80413;PMS5003;69758;52.580;13.068;2023-11-21T04:34:21;16;15;
80413;PMS5003;69758;52.580;13.068;2023-11-21T04:36:46;17;15;
80413;PMS5003;69758;52.580;13.068;2023-11-21T04:39:12;18;15;
80413;PMS5003;69758;52.580;13.068;2023-11-21T04:41:38;19;18;
80413;PMS5003;69758;52.580;13.068;2023-11-21T04:44:03;16;15;
80413;PMS5003;69758;52.580;13.068;2023-11-21T04:46:28;17;16;
80413;PMS5003;69758;52.580;13.068;2023-11-21T04:48:54;19;17;
80413;PMS5003;69758;52.580;13.068;2023-11-21T04:51:19;18;16;
80413;PMS5003;69758;52.580;13.068;2023-11-21T04:53:45;18;16;
80413;PMS5003;69758;52.580;13.068;2023-11-21T04:56:10;19;17;
80413;PMS5003;69758;52.580;13.068;2023-11-21T04:58:35;15;15;
80413;PMS5003;69758;52.580;13.068;2023-11-21T05:01:01;18;17;
80413;PMS5003;69758;52.580;13.068;2023-11-21T05:03:27;26;23;
80413;PMS5003;69758;52.580;13.068;2023-11-21T05:05:52;18;17;
80413;PMS5003;69758;52.580;13.068;2023-11-21T05:08:18;15;15;
80413;PMS5003;69758;52.580;13.068;2023-11-21T05:10:43;22;19;
80413;PMS5003;69758;52.580;13.068;2023-11-21T05:13:08;23;19;
80413;PMS5003;69758;52.580;13.068;2023-11-21T05:15:34;18;18;
80413;PMS5003;69758;52.580;13.068;2023-11-21T05:17:59;21;18;
80413;PMS5003;69758;52.580;13.068;2023-11-21T05:20:25;17;16;
80413;PMS5003;69758;52.580;13.068;2023-11-21T05:22:50;21;18;
80413;PMS5003;69758;52.580;13.068;2023-11-21T05:25:15;18;15;
80413;PMS5003;69758;52.580;13.068;2023-11-21T05:27:41;22;19;
80413;PMS5003;69758;52.580;13.068;2023-11-21T05:30:07;18;16;
80413;PMS5003;69758;52.580;13.068;2023-11-21T05:32:32;18;17;
80413;PMS5003;69758;52.580;13.068;2023-11-21T05:34:57;21;19;
80413;PMS5003;69758;52.580;13.068;2023-11-21T05:37:23;20;19;
80413;PMS5003;69758;52.580;13.068;2023-11-21T05:39:49;24;21;
80413;PMS5003;69758;52.580;13.068;2023-11-21T05:42:15;23;22;
80413;PMS5003;69758;52.580;13.068;2023-11-21T05:44:41;17;16;
80413;PMS5003;69758;52.580;13.068;2023-11-21T05:47:05;16;15;
80413;PMS5003;69758;52.580;13.068;2023-11-21T05:49:31;16;16;
80413;PMS5003;69758;52.580;13.068;2023-11-21T05:51:57;16;14;
80413;PMS5003;69758;52.580;13.068;2023-11-21T05:54:22;16;15;
80413;PMS5003;69758;52.580;13.068;2023-11-21T05:56:47;19;17;
80413;PMS5003;69758;52.580;13.068;2023-11-21T05:59:12;18;17;
80413;PMS5003;69758;52.580;13.068;2023-11-21T06:01:38;21;18;
80413;PMS5003;69758;52.580;13.068;2023-11-21T06:04:04;12;12;
80413;PMS5003;69758;52.580;13.068;2023-11-21T06:06:29;16;15;
80413;PMS5003;69758;52.580;13.068;2023-11-21T06:08:54;16;15;
80413;PMS5003;69758;52.580;13.068;2023-11-21T06:11:19;16;16;
80413;PMS5003;69758;52.580;13.068;2023-11-21T06:13:44;15;15;
80413;PMS5003;69758;52.580;13.068;2023-11-21T06:16:10;23;21;
80413;PMS5003;69758;52.580;13.068;2023-11-21T06:18:35;17;16;
80413;PMS5003;69758;52.580;13.068;2023-11-21T06:21:01;19;17;
80413;PMS5003;69758;52.580;13.068;2023-11-21T06:23:26;14;12;
80413;PMS5003;69758;52.580;13.068;2023-11-21T06:25:52;22;21;
80413;PMS5003;69758;52.580;13.068;2023-11-21T06:28:17;15;12;
80413;PMS5003;69758;52.580;13.068;2023-11-21T06:30:43;21;20;
80413;PMS5003;69758;52.580;13.068;2023-11-21T06:33:08;13;13;
80413;PMS5003;69758;52.580;13.068;2023-11-21T06:35:34;16;14;
80413;PMS5003;69758;52.580;13.068;2023-11-21T06:37:59;17;16;
80413;PMS5003;69758;52.580;13.068;2023-11-21T06:40:25;15;15;
80413;PMS5003;69758;52.580;13.068;2023-11-21T06:42:50;15;12;
80413;PMS5003;69758;52.580;13.068;2023-11-21T06:45:16;10;10;
80413;PMS5003;69758;52.580;13.068;2023-11-21T06:47:41;14;12;
80413;PMS5003;69758;52.580;13.068;2023-11-21T06:50:06;17;16;
80413;PMS5003;69758;52.580;13.068;2023-11-21T06:52:32;15;12;
80413;PMS5003;69758;52.580;13.068;2023-11-21T06:54:57;16;14;
80413;PMS5003;69758;52.580;13.068;2023-11-21T06:57:32;16;16;
80413;PMS5003;69758;52.580;13.068;2023-11-21T06:59:47;9;9;
80413;PMS5003;69758;52.580;13.068;2023-11-21T07:02:13;21;20;
80413;PMS5003;69758;52.580;13.068;2023-11-21T07:04:38;16;14;
80413;PMS5003;69758;52.580;13.068;2023-11-21T07:07:03;14;13;
80413;PMS5003;69758;52.580;13.068;2023-11-21T07:09:28;14;14;
80413;PMS5003;69758;52.580;13.068;2023-11-21T07:11:53;13;11;
80413;PMS5003;69758;52.580;13.068;2023-11-21T07:14:18;20;19;
80413;PMS5003;69758;52.580;13.068;2023-11-21T07:16:44;17;16;
80413;PMS5003;69758;52.580;13.068;2023-11-21T07:19:09;14;13;
80413;PMS5003;69758;52.580;13.068;2023-11-21T07:21:35;16;15;
80413;PMS5003;69758;52.580;13.068;2023-11-21T07:24:01;15;15;
80413;PMS5003;69758;52.580;13.068;2023-11-21T07:26:26;17;15;
80413;PMS5003;69758;52.580;13.068;2023-11-21T07:28:51;13;13;
80413;PMS5003;69758;52.580;13.068;2023-11-21T07:31:16;14;14;
80413;PMS5003;69758;52.580;13.068;2023-11-21T07:33:42;14;13;
80413;PMS5003;69758;52.580;13.068;2023-11-21T07:36:08;13;13;
80413;PMS5003;69758;52.580;13.068;2023-11-21T07:38:33;11;11;
80413;PMS5003;69758;52.580;13.068;2023-11-21T07:40:59;13;13;
80413;PMS5003;69758;52.580;13.068;2023-11-21T07:43:25;16;15;
80413;PMS5003;69758;52.580;13.068;2023-11-21T07:45:50;16;16;
80413;PMS5003;69758;52.580;13.068;2023-11-21T07:48:15;15;14;
80413;PMS5003;69758;52.580;13.068;2023-11-21T07:50:41;13;10;
80413;PMS5003;69758;52.580;13.068;2023-11-21T07:53:06;14;13;
80413;PMS5003;69758;52.580;13.068;2023-11-21T07:55:31;16;14;
80413;PMS5003;69758;52.580;13.068;2023-11-21T07:57:57;10;10;
80413;PMS5003;69758;52.580;13.068;2023-11-21T08:00:22;12;12;
80413;PMS5003;69758;52.580;13.068;2023-11-21T08:02:48;10;10;
80413;PMS5003;69758;52.580;13.068;2023-11-21T08:05:13;13;13;
80413;PMS5003;69758;52.580;13.068;2023-11-21T08:07:39;17;15;
80413;PMS5003;69758;52.580;13.068;2023-11-21T08:10:05;14;11;
80413;PMS5003;69758;52.580;13.068;2023-11-21T08:12:30;11;10;
80413;PMS5003;69758;52.580;13.068;2023-11-21T08:14:55;13;10;
80413;PMS5003;69758;52.580;13.068;2023-11-21T08:17:20;13;11;
80413;PMS5003;69758;52.580;13.068;2023-11-21T08:19:45;13;13;
80413;PMS5003;69758;52.580;13.068;2023-11-21T08:22:11;14;11;
80413;PMS5003;69758;52.580;13.068;2023-11-21T08:24:36;13;11;
80413;PMS5003;69758;52.580;13.068;2023-11-21T08:27:02;13;10;
80413;PMS5003;69758;52.580;13.068;2023-11-21T08:29:27;10;9;
80413;PMS5003;69758;52.580;13.068;2023-11-21T08:31:53;9;9;
80413;PMS5003;69758;52.580;13.068;2023-11-21T08:34:18;11;10;
80413;PMS5003;69758;52.580;13.068;2023-11-21T08:36:43;7;7;
80413;PMS5003;69758;52.580;13.068;2023-11-21T08:39:09;10;9;
80413;PMS5003;69758;52.580;13.068;2023-11-21T08:41:34;9;7;
80413;PMS5003;69758;52.580;13.068;2023-11-21T08:43:59;7;5;
80413;PMS5003;69758;52.580;13.068;2023-11-21T08:46:25;9;7;
80413;PMS5003;69758;52.580;13.068;2023-11-21T08:48:50;7;7;
80413;PMS5003;69758;52.580;13.068;2023-11-21T08:51:16;11;10;
80413;PMS5003;69758;52.580;13.068;2023-11-21T08:53:41;7;7;
80413;PMS5003;69758;52.580;13.068;2023-11-21T08:56:07;10;10;
80413;PMS5003;69758;52.580;13.068;2023-11-21T08:58:32;8;8;
80413;PMS5003;69758;52.580;13.068;2023-11-21T09:00:57;8;7;
80413;PMS5003;69758;52.580;13.068;2023-11-21T09:03:23;5;5;
80413;PMS5003;69758;52.580;13.068;2023-11-21T09:05:48;8;8;
80413;PMS5003;69758;52.580;13.068;2023-11-21T09:08:13;7;7;
80413;PMS5003;69758;52.580;13.068;2023-11-21T09:10:39;7;7;
80413;PMS5003;69758;52.580;13.068;2023-11-21T09:13:04;7;7;
80413;PMS5003;69758;52.580;13.068;2023-11-21T09:15:30;10;9;
80413;PMS5003;69758;52.580;13.068;2023-11-21T09:17:55;8;7;
80413;PMS5003;69758;52.580;13.068;2023-11-21T09:20:20;8;7;
80413;PMS5003;69758;52.580;13.068;2023-11-21T09:22:46;10;10;
80413;PMS5003;69758;52.580;13.068;2023-11-21T09:25:11;8;7;
80413;PMS5003;69758;52.580;13.068;2023-11-21T09:27:37;8;8;
80413;PMS5003;69758;52.580;13.068;2023-11-21T09:30:02;7;5;
80413;PMS5003;69758;52.580;13.068;2023-11-21T09:32:27;9;8;
80413;PMS5003;69758;52.580;13.068;2023-11-21T09:34:53;9;8;
80413;PMS5003;69758;52.580;13.068;2023-11-21T09:37:18;9;8;
80413;PMS5003;69758;52.580;13.068;2023-11-21T09:39:44;8;8;
80413;PMS5003;69758;52.580;13.068;2023-11-21T09:42:10;9;9;
80413;PMS5003;69758;52.580;13.068;2023-11-21T09:44:35;9;8;
80413;PMS5003;69758;52.580;13.068;2023-11-21T09:47:00;9;9;
80413;PMS5003;69758;52.580;13.068;2023-11-21T09:49:25;10;10;
80413;PMS5003;69758;52.580;13.068;2023-11-21T09:51:50;9;9;
80413;PMS5003;69758;52.580;13.068;2023-11-21T09:54:16;10;10;
80413;PMS5003;69758;52.580;13.068;2023-11-21T09:56:41;10;10;
80413;PMS5003;69758;52.580;13.068;2023-11-21T09:59:07;11;11;
80413;PMS5003;69758;52.580;13.068;2023-11-21T10:01:32;10;9;
80413;PMS5003;69758;52.580;13.068;2023-11-21T10:03:58;10;10;
80413;PMS5003;69758;52.580;13.068;2023-11-21T10:06:23;10;10;
80413;PMS5003;69758;52.580;13.068;2023-11-21T10:08:48;10;10;
80413;PMS5003;69758;52.580;13.068;2023-11-21T10:11:14;13;9;
80413;PMS5003;69758;52.580;13.068;2023-11-21T10:13:39;10;10;
80413;PMS5003;69758;52.580;13.068;2023-11-21T10:16:09;8;8;
80413;PMS5003;69758;52.580;13.068;2023-11-21T10:18:30;12;12;
80413;PMS5003;69758;52.580;13.068;2023-11-21T10:20:55;9;7;
80413;PMS5003;69758;52.580;13.068;2023-11-21T10:23:20;8;8;
80413;PMS5003;69758;52.580;13.068;2023-11-21T10:25:46;10;10;
80413;PMS5003;69758;52.580;13.068;2023-11-21T10:28:11;13;13;
80413;PMS5003;69758;52.580;13.068;2023-11-21T10:30:37;12;9;
80413;PMS5003;69758;52.580;13.068;2023-11-21T10:33:02;13;13;
80413;PMS5003;69758;52.580;13.068;2023-11-21T10:40:18;16;15;
80413;PMS5003;69758;52.580;13.068;2023-11-21T10:42:43;15;15;
80413;PMS5003;69758;52.580;13.068;2023-11-21T10:45:09;13;13;
80413;PMS5003;69758;52.580;13.068;2023-11-21T10:47:34;15;14;
80413;PMS5003;69758;52.580;13.068;2023-11-21T10:50:05;16;15;
80413;PMS5003;69758;52.580;13.068;2023-11-21T10:52:26;15;14;
80413;PMS5003;69758;52.580;13.068;2023-11-21T10:54:51;16;13;
80413;PMS5003;69758;52.580;13.068;2023-11-21T10:57:17;16;16;
80413;PMS5003;69758;52.580;13.068;2023-11-21T10:59:41;22;21;
80413;PMS5003;69758;52.580;13.068;2023-11-21T11:02:08;22;18;
80413;PMS5003;69758;52.580;13.068;2023-11-21T11:04:32;19;15;
80413;PMS5003;69758;52.580;13.068;2023-11-21T11:06:57;16;16;
80413;PMS5003;69758;52.580;13.068;2023-11-21T11:09:23;14;14;
80413;PMS5003;69758;52.580;13.068;2023-11-21T11:11:47;20;20;
80413;PMS5003;69758;52.580;13.068;2023-11-21T11:14:13;20;19;
80413;PMS5003;69758;52.580;13.068;2023-11-21T11:16:39;19;18;
80413;PMS5003;69758;52.580;13.068;2023-11-21T11:19:04;20;16;
80413;PMS5003;69758;52.580;13.068;2023-11-21T11:21:32;20;19;
80413;PMS5003;69758;52.580;13.068;2023-11-21T11:23:59;18;18;
80413;PMS5003;69758;52.580;13.068;2023-11-21T11:26:23;19;16;
80413;PMS5003;69758;52.580;13.068;2023-11-21T11:28:47;15;15;
80413;PMS5003;69758;52.580;13.068;2023-11-21T11:31:14;15;14;
80413;PMS5003;69758;52.580;13.068;2023-11-21T11:33:38;15;14;
80413;PMS5003;69758;52.580;13.068;2023-11-21T11:36:04;15;15;
80413;PMS5003;69758;52.580;13.068;2023-11-21T11:38:30;18;16;
80413;PMS5003;69758;52.580;13.068;2023-11-21T11:40:53;12;12;
80413;PMS5003;69758;52.580;13.068;2023-11-21T11:45:44;20;16;
80413;PMS5003;69758;52.580;13.068;2023-11-21T11:48:11;14;14;
80413;PMS5003;69758;52.580;13.068;2023-11-21T11:50:35;16;15;
80413;PMS5003;69758;52.580;13.068;2023-11-21T11:55:26;19;16;
80413;PMS5003;69758;52.580;13.068;2023-11-21T11:57:52;24;20;
80413;PMS5003;69758;52.580;13.068;2023-11-21T12:00:18;18;15;
80413;PMS5003;69758;52.580;13.068;2023-11-21T12:02:43;15;13;
80413;PMS5003;69758;52.580;13.068;2023-11-21T12:05:08;15;14;
80413;PMS5003;69758;52.580;13.068;2023-11-21T12:09:58;12;10;
80413;PMS5003;69758;52.580;13.068;2023-11-21T12:12:25;14;14;
80413;PMS5003;69758;52.580;13.068;2023-11-21T12:14:49;15;13;
80413;PMS5003;69758;52.580;13.068;2023-11-21T12:17:14;10;10;
80413;PMS5003;69758;52.580;13.068;2023-11-21T12:19:40;13;13;
80413;PMS5003;69758;52.580;13.068;2023-11-21T12:22:05;10;10;
80413;PMS5003;69758;52.580;13.068;2023-11-21T12:24:31;16;15;
80413;PMS5003;69758;52.580;13.068;2023-11-21T12:26:56;13;12;
80413;PMS5003;69758;52.580;13.068;2023-11-21T12:29:22;12;12;
80413;PMS5003;69758;52.580;13.068;2023-11-21T12:31:48;13;13;
80413;PMS5003;69758;52.580;13.068;2023-11-21T12:34:12;15;14;
80413;PMS5003;69758;52.580;13.068;2023-11-21T12:36:38;13;13;
80413;PMS5003;69758;52.580;13.068;2023-11-21T12:39:03;15;13;
80413;PMS5003;69758;52.580;13.068;2023-11-21T12:41:28;13;12;
80413;PMS5003;69758;52.580;13.068;2023-11-21T12:43:54;16;15;
80413;PMS5003;69758;52.580;13.068;2023-11-21T12:46:20;16;15;
80413;PMS5003;69758;52.580;13.068;2023-11-21T12:48:45;18;16;
80413;PMS5003;69758;52.580;13.068;2023-11-21T12:51:10;19;15;
80413;PMS5003;69758;52.580;13.068;2023-11-21T12:53:37;15;15;
80413;PMS5003;69758;52.580;13.068;2023-11-21T12:56:01;38;35;
80413;PMS5003;69758;52.580;13.068;2023-11-21T12:58:26;16;16;
80413;PMS5003;69758;52.580;13.068;2023-11-21T13:00:51;15;14;
80413;PMS5003;69758;52.580;13.068;2023-11-21T13:03:17;18;13;
80413;PMS5003;69758;52.580;13.068;2023-11-21T13:05:42;15;13;
80413;PMS5003;69758;52.580;13.068;2023-11-21T13:08:08;13;10;
80413;PMS5003;69758;52.580;13.068;2023-11-21T13:10:33;15;13;
80413;PMS5003;69758;52.580;13.068;2023-11-21T13:12:58;18;14;
80413;PMS5003;69758;52.580;13.068;2023-11-21T13:15:23;15;14;
80413;PMS5003;69758;52.580;13.068;2023-11-21T13:17:49;12;12;
80413;PMS5003;69758;52.580;13.068;2023-11-21T13:20:14;15;14;
80413;PMS5003;69758;52.580;13.068;2023-11-21T13:22:39;12;12;
80413;PMS5003;69758;52.580;13.068;2023-11-21T13:25:05;16;14;
80413;PMS5003;69758;52.580;13.068;2023-11-21T13:27:30;16;14;
80413;PMS5003;69758;52.580;13.068;2023-11-21T13:29:55;15;15;
80413;PMS5003;69758;52.580;13.068;2023-11-21T13:32:21;15;15;
80413;PMS5003;69758;52.580;13.068;2023-11-21T13:34:46;20;19;
80413;PMS5003;69758;52.580;13.068;2023-11-21T13:37:11;21;20;
80413;PMS5003;69758;52.580;13.068;2023-11-21T13:39:36;19;19;
80413;PMS5003;69758;52.580;13.068;2023-11-21T13:42:02;19;18;
80413;PMS5003;69758;52.580;13.068;2023-11-21T13:44:27;38;34;
80413;PMS5003;69758;52.580;13.068;2023-11-21T13:46:53;20;20;
80413;PMS5003;69758;52.580;13.068;2023-11-21T13:49:19;15;14;
80413;PMS5003;69758;52.580;13.068;2023-11-21T13:51:43;22;20;
80413;PMS5003;69758;52.580;13.068;2023-11-21T13:54:09;19;18;
80413;PMS5003;69758;52.580;13.068;2023-11-21T13:56:34;25;24;
80413;PMS5003;69758;52.580;13.068;2023-11-21T13:59:00;24;20;
80413;PMS5003;69758;52.580;13.068;2023-11-21T14:01:26;20;19;
80413;PMS5003;69758;52.580;13.068;2023-11-21T14:03:51;20;19;
80413;PMS5003;69758;52.580;13.068;2023-11-21T14:06:16;23;23;
80413;PMS5003;69758;52.580;13.068;2023-11-21T14:08:42;19;18;
80413;PMS5003;69758;52.580;13.068;2023-11-21T14:11:08;22;22;
80413;PMS5003;69758;52.580;13.068;2023-11-21T14:13:33;18;18;
80413;PMS5003;69758;52.580;13.068;2023-11-21T14:15:58;23;23;
80413;PMS5003;69758;52.580;13.068;2023-11-21T14:18:23;19;19;
80413;PMS5003;69758;52.580;13.068;2023-11-21T14:20:49;24;23;
80413;PMS5003;69758;52.580;13.068;2023-11-21T14:23:15;19;19;
80413;PMS5003;69758;52.580;13.068;2023-11-21T14:25:40;27;27;
80413;PMS5003;69758;52.580;13.068;2023-11-21T14:28:06;33;27;
80413;PMS5003;69758;52.580;13.068;2023-11-21T14:30:31;32;29;
80413;PMS5003;69758;52.580;13.068;2023-11-21T14:32:57;28;25;
80413;PMS5003;69758;52.580;13.068;2023-11-21T14:35:22;37;34;
80413;PMS5003;69758;52.580;13.068;2023-11-21T14:37:47;34;32;
80413;PMS5003;69758;52.580;13.068;2023-11-21T14:40:12;37;35;
80413;PMS5003;69758;52.580;13.068;2023-11-21T14:42:39;38;31;
80413;PMS5003;69758;52.580;13.068;2023-11-21T14:45:04;29;28;
80413;PMS5003;69758;52.580;13.068;2023-11-21T14:47:29;32;32;
80413;PMS5003;69758;52.580;13.068;2023-11-21T14:49:54;32;28;
80413;PMS5003;69758;52.580;13.068;2023-11-21T14:52:20;35;32;
80413;PMS5003;69758;52.580;13.068;2023-11-21T14:54:45;36;33;
80413;PMS5003;69758;52.580;13.068;2023-11-21T14:57:11;24;24;
80413;PMS5003;69758;52.580;13.068;2023-11-21T14:59:36;28;23;
80413;PMS5003;69758;52.580;13.068;2023-11-21T15:02:02;28;23;
80413;PMS5003;69758;52.580;13.068;2023-11-21T15:04:27;28;28;
80413;PMS5003;69758;52.580;13.068;2023-11-21T15:06:53;29;27;
80413;PMS5003;69758;52.580;13.068;2023-11-21T15:09:18;33;29;
80413;PMS5003;69758;52.580;13.068;2023-11-21T15:11:44;27;22;
80413;PMS5003;69758;52.580;13.068;2023-11-21T15:14:09;23;21;
80413;PMS5003;69758;52.580;13.068;2023-11-21T15:16:35;27;23;
80413;PMS5003;69758;52.580;13.068;2023-11-21T15:19:00;22;22;
80413;PMS5003;69758;52.580;13.068;2023-11-21T15:21:25;25;23;
80413;PMS5003;69758;52.580;13.068;2023-11-21T15:23:51;29;25;
80413;PMS5003;69758;52.580;13.068;2023-11-21T15:26:16;30;26;
80413;PMS5003;69758;52.580;13.068;2023-11-21T15:28:42;24;23;
80413;PMS5003;69758;52.580;13.068;2023-11-21T15:31:07;24;21;
80413;PMS5003;69758;52.580;13.068;2023-11-21T15:33:32;26;22;
80413;PMS5003;69758;52.580;13.068;2023-11-21T15:35:58;23;23;
80413;PMS5003;69758;52.580;13.068;2023-11-21T15:38:23;23;22;
80413;PMS5003;69758;52.580;13.068;2023-11-21T15:40:49;28;24;
80413;PMS5003;69758;52.580;13.068;2023-11-21T15:43:14;24;22;
80413;PMS5003;69758;52.580;13.068;2023-11-21T15:45:40;23;22;
80413;PMS5003;69758;52.580;13.068;2023-11-21T15:48:07;23;22;
80413;PMS5003;69758;52.580;13.068;2023-11-21T15:50:31;19;19;
80413;PMS5003;69758;52.580;13.068;2023-11-21T15:52:56;25;22;
80413;PMS5003;69758;52.580;13.068;2023-11-21T15:55:22;32;28;
80413;PMS5003;69758;52.580;13.068;2023-11-21T15:57:47;25;24;
80413;PMS5003;69758;52.580;13.068;2023-11-21T16:00:13;21;18;
80413;PMS5003;69758;52.580;13.068;2023-11-21T16:02:38;65;51;